createdAt,value
2022-10-03T00:01:59.904Z,4.25
2022-10-03T00:05:06.305Z,3.92
2022-10-03T00:08:12.417Z,3.85
2022-10-03T00:10:53.975Z,3.97
2022-10-03T00:13:53.329Z,3.95
2022-10-03T00:16:40.286Z,3.63
2022-10-03T00:19:17.675Z,3.92
2022-10-03T00:21:45.811Z,4.18
2022-10-03T00:24:20.225Z,4.55
2022-10-03T00:26:53.601Z,4.20
2022-10-03T00:29:51.363Z,4.10
2022-10-03T00:32:43.796Z,3.65
2022-10-03T00:35:31.579Z,3.47
2022-10-03T00:38:09.874Z,3.40
2022-10-03T00:41:04.461Z,3.60
2022-10-03T00:44:11.639Z,3.33
2022-10-03T00:46:58.758Z,4.25
2022-10-03T00:49:53.223Z,3.88
2022-10-03T00:52:40.170Z,4.17
2022-10-03T00:55:30.467Z,3.40
2022-10-03T00:58:30.999Z,3.10
2022-10-03T01:01:19.895Z,3.28
2022-10-03T01:04:14.276Z,3.25
2022-10-03T01:06:47.676Z,3.30
2022-10-03T01:09:34.630Z,3.45
2022-10-03T01:12:11.819Z,2.78
2022-10-03T01:14:58.302Z,2.80
2022-10-03T01:17:48.599Z,3.47
2022-10-03T01:20:25.001Z,3.60
2022-10-03T01:23:11.990Z,3.83
2022-10-03T01:25:50.668Z,3.65
2022-10-03T01:28:48.367Z,3.90
2022-10-03T01:31:20.333Z,3.13
2022-10-03T01:33:54.985Z,3.70
2022-10-03T01:39:15.692Z,3.45
2022-10-03T01:42:07.286Z,3.65
2022-10-03T01:45:10.353Z,4.45
2022-10-03T01:47:51.597Z,3.50
2022-10-03T01:50:20.891Z,3.40
2022-10-03T01:53:13.598Z,3.30
2022-10-03T01:56:05.638Z,3.38
2022-10-03T01:58:41.134Z,3.58
2022-10-03T02:01:15.495Z,3.20
2022-10-03T02:03:53.060Z,4.10
2022-10-03T02:06:27.822Z,4.30
2022-10-03T02:09:07.954Z,4.05
2022-10-03T02:11:45.250Z,4.10
2022-10-03T02:14:32.294Z,6.85
2022-10-03T02:17:04.264Z,8.55
2022-10-03T02:19:35.995Z,7.00
2022-10-03T02:22:03.330Z,4.22
2022-10-03T02:24:37.743Z,4.22
2022-10-03T02:27:44.623Z,3.60
2022-10-03T02:30:18.532Z,3.90
2022-10-03T02:33:21.161Z,4.15
2022-10-03T02:35:57.509Z,3.22
2022-10-03T02:38:32.006Z,3.20
2022-10-03T02:41:39.076Z,3.72
2022-10-03T02:44:09.732Z,3.47
2022-10-03T02:47:10.907Z,4.03
2022-10-03T02:49:51.462Z,3.50
2022-10-03T02:52:51.593Z,3.25
2022-10-03T02:55:39.666Z,3.28
2022-10-03T02:58:30.025Z,4.13
2022-10-03T03:01:18.118Z,3.90
2022-10-03T03:04:02.338Z,3.97
2022-10-03T03:07:09.221Z,3.70
2022-10-03T03:09:58.117Z,5.90
2022-10-03T03:13:07.237Z,4.20
2022-10-03T03:15:41.438Z,3.42
2022-10-03T03:18:24.165Z,3.13
2022-10-03T03:20:56.949Z,3.55
2022-10-03T03:23:25.030Z,4.60
2022-10-03T03:26:17.403Z,4.57
2022-10-03T03:28:57.606Z,3.28
2022-10-03T03:31:39.359Z,2.92
2022-10-03T03:34:27.492Z,3.40
2022-10-03T03:36:59.021Z,3.83
2022-10-03T03:39:29.544Z,4.30
2022-10-03T03:42:06.926Z,3.60
2022-10-03T03:44:37.735Z,4.10
2022-10-03T03:47:15.224Z,2.83
2022-10-03T03:50:07.782Z,3.13
2022-10-03T03:52:43.161Z,4.25
2022-10-03T03:55:48.793Z,3.47
2022-10-03T04:01:18.307Z,4.13
2022-10-03T04:03:53.946Z,4.85
2022-10-03T04:06:37.851Z,4.18
2022-10-03T04:09:40.961Z,4.35
2022-10-03T04:12:22.032Z,4.03
2022-10-03T04:15:20.870Z,3.72
2022-10-03T04:18:37.196Z,4.20
2022-10-03T04:21:08.801Z,3.42
2022-10-03T04:23:52.310Z,3.50
2022-10-03T04:26:59.779Z,3.88
2022-10-03T04:29:43.822Z,5.75
2022-10-03T04:32:19.422Z,4.00
2022-10-03T04:35:26.307Z,5.78
2022-10-03T04:37:54.374Z,5.10
2022-10-03T04:40:30.301Z,3.60
2022-10-03T04:43:17.359Z,3.60
2022-10-03T04:46:02.064Z,3.30
2022-10-03T04:51:13.018Z,2.22
2022-10-03T04:53:56.885Z,3.08
2022-10-03T04:56:30.804Z,2.72
2022-10-03T04:59:24.582Z,2.25
2022-10-03T05:02:03.301Z,2.85
2022-10-03T05:04:30.362Z,2.95
2022-10-03T05:07:23.765Z,4.10
2022-10-03T05:09:56.638Z,3.97
2022-10-03T05:12:48.207Z,3.80
2022-10-03T05:15:35.727Z,4.85
2022-10-03T05:18:17.448Z,4.07
2022-10-03T05:21:12.234Z,5.22
2022-10-03T05:24:03.316Z,3.95
2022-10-03T05:27:03.369Z,6.20
2022-10-03T05:29:38.669Z,4.45
2022-10-03T05:32:23.388Z,4.30
2022-10-03T05:35:13.781Z,5.85
2022-10-03T05:37:51.720Z,6.30
2022-10-03T05:40:26.056Z,5.10
2022-10-03T05:42:53.332Z,5.10
2022-10-03T05:45:23.543Z,6.47
2022-10-03T05:48:13.260Z,4.82
2022-10-03T05:51:20.448Z,5.93
2022-10-03T05:54:15.747Z,5.68
2022-10-03T05:59:53.579Z,5.40
2022-10-03T06:02:35.868Z,3.88
2022-10-03T06:05:07.440Z,3.63
2022-10-03T06:07:51.687Z,4.22
2022-10-03T06:10:26.783Z,4.47
2022-10-03T06:13:19.776Z,4.38
2022-10-03T06:15:56.688Z,2.95
2022-10-03T06:18:43.751Z,3.92
2022-10-03T06:21:45.526Z,4.18
2022-10-03T06:24:30.309Z,4.80
2022-10-03T06:27:37.148Z,3.42
2022-10-03T06:30:12.295Z,3.75
2022-10-03T06:32:57.830Z,2.97
2022-10-03T06:35:32.966Z,2.80
2022-10-03T06:38:39.838Z,3.45
2022-10-03T06:41:11.748Z,3.10
2022-10-03T06:44:04.246Z,3.35
2022-10-03T06:47:01.220Z,3.17
2022-10-03T06:49:48.992Z,3.00
2022-10-03T06:52:36.160Z,2.85
2022-10-03T06:55:36.415Z,2.85
2022-10-03T06:58:43.501Z,2.75
2022-10-03T07:01:45.426Z,2.30
2022-10-03T07:04:32.498Z,1.60
2022-10-03T07:07:20.493Z,1.70
2022-10-03T07:10:20.506Z,1.77
2022-10-03T07:13:08.464Z,1.40
2022-10-03T07:19:08.684Z,1.85
2022-10-03T07:21:59.912Z,1.70
2022-10-03T07:24:46.878Z,2.00
2022-10-03T07:27:41.818Z,2.00
2022-10-03T07:30:17.823Z,2.63
2022-10-03T07:32:44.915Z,3.08
2022-10-03T07:35:14.208Z,2.00
2022-10-03T07:38:31.105Z,2.10
2022-10-03T07:41:25.568Z,2.25
2022-10-03T07:44:00.288Z,2.00
2022-10-03T07:46:38.103Z,2.25
2022-10-03T07:49:28.593Z,3.20
2022-10-03T07:52:27.224Z,2.78
2022-10-03T07:55:34.157Z,1.90
2022-10-03T07:58:42.598Z,2.13
2022-10-03T08:01:10.697Z,2.20
2022-10-03T08:04:01.276Z,2.30
2022-10-03T08:06:52.062Z,2.60
2022-10-03T08:09:40.161Z,2.67
2022-10-03T08:12:47.918Z,2.70
2022-10-03T08:15:43.833Z,2.50
2022-10-03T08:18:31.407Z,1.77
2022-10-03T08:21:01.203Z,1.92
2022-10-03T08:24:07.475Z,1.95
2022-10-03T08:26:55.431Z,1.70
2022-10-03T08:29:31.000Z,2.05
2022-10-03T08:32:25.443Z,2.28
2022-10-03T08:35:34.962Z,1.98
2022-10-03T08:38:18.907Z,2.30
2022-10-03T08:41:06.995Z,1.48
2022-10-03T08:43:51.066Z,1.92
2022-10-03T08:46:38.126Z,1.58
2022-10-03T08:49:14.110Z,1.67
2022-10-03T08:51:52.074Z,1.40
2022-10-03T08:54:48.493Z,1.55
2022-10-03T08:57:55.088Z,1.58
2022-10-03T09:00:29.389Z,1.70
2022-10-03T09:03:41.936Z,1.13
2022-10-03T09:06:11.094Z,1.23
2022-10-03T09:08:41.467Z,1.20
2022-10-03T09:11:28.460Z,1.15
2022-10-03T09:14:19.128Z,0.90
2022-10-03T09:17:12.624Z,0.82
2022-10-03T09:20:16.455Z,0.65
2022-10-03T09:23:02.816Z,1.00
2022-10-03T09:25:49.769Z,0.82
2022-10-03T09:28:40.360Z,0.88
2022-10-03T09:31:21.234Z,0.50
2022-10-03T09:34:46.826Z,0.60
2022-10-03T09:37:21.329Z,0.50
2022-10-03T09:39:55.858Z,0.50
2022-10-03T09:42:36.621Z,1.08
2022-10-03T09:45:24.406Z,9.20
2022-10-03T09:47:51.472Z,1.75
2022-10-03T09:50:29.324Z,0.57
2022-10-03T09:53:16.347Z,0.98
2022-10-03T09:55:54.053Z,1.02
2022-10-03T09:58:42.110Z,1.60
2022-10-03T10:01:09.258Z,0.75
2022-10-03T10:03:57.703Z,0.68
2022-10-03T10:06:44.794Z,0.70
2022-10-03T10:09:31.706Z,0.80
2022-10-03T10:12:22.085Z,1.00
2022-10-03T10:15:37.080Z,0.60
2022-10-03T10:18:32.761Z,0.63
2022-10-03T10:21:36.270Z,0.70
2022-10-03T10:24:31.961Z,0.60
2022-10-03T10:27:36.391Z,0.70
2022-10-03T10:30:39.190Z,0.60
2022-10-03T10:33:28.261Z,0.63
2022-10-03T10:35:59.550Z,0.85
2022-10-03T10:38:50.804Z,0.70
2022-10-03T10:41:41.338Z,0.57
2022-10-03T10:44:30.355Z,0.80
2022-10-03T10:47:14.023Z,1.00
2022-10-03T10:49:43.518Z,0.50
2022-10-03T10:52:27.565Z,0.50
2022-10-03T10:55:03.746Z,0.60
2022-10-03T10:57:51.787Z,0.70
2022-10-03T11:00:39.782Z,0.60
2022-10-03T11:03:34.258Z,0.70
2022-10-03T11:06:22.488Z,0.80
2022-10-03T11:09:25.668Z,0.50
2022-10-03T11:11:53.129Z,0.60
2022-10-03T11:14:38.030Z,0.50
2022-10-03T11:17:41.361Z,0.68
2022-10-03T11:20:35.765Z,0.50
2022-10-03T11:23:23.372Z,0.60
2022-10-03T11:26:21.723Z,0.57
2022-10-03T11:29:24.527Z,0.60
2022-10-03T11:32:12.204Z,0.50
2022-10-03T11:35:19.327Z,0.77
2022-10-03T11:38:04.153Z,0.43
2022-10-03T11:40:49.812Z,0.40
2022-10-03T11:44:01.496Z,0.47
2022-10-03T11:46:50.797Z,0.50
2022-10-03T11:49:57.664Z,0.63
2022-10-03T11:52:43.431Z,0.60
2022-10-03T11:55:29.493Z,0.50
2022-10-03T11:58:24.106Z,0.45
2022-10-03T12:01:17.851Z,0.50
2022-10-03T12:04:14.034Z,0.50
2022-10-03T12:07:09.204Z,0.50
2022-10-03T12:10:02.548Z,0.50
2022-10-03T12:12:44.087Z,0.70
2022-10-03T12:15:23.856Z,0.40
2022-10-03T12:18:07.375Z,0.50
2022-10-03T12:21:17.382Z,0.50
2022-10-03T12:24:08.253Z,0.60
2022-10-03T12:26:44.670Z,0.60
2022-10-03T12:29:16.438Z,0.70
2022-10-03T12:32:00.657Z,0.40
2022-10-03T12:34:33.060Z,0.50
2022-10-03T12:37:39.901Z,0.50
2022-10-03T12:40:29.954Z,0.60
2022-10-03T12:43:04.872Z,0.57
2022-10-03T12:45:39.498Z,0.50
2022-10-03T12:48:30.030Z,0.50
2022-10-03T12:51:32.796Z,0.60
2022-10-03T12:54:23.561Z,0.60
2022-10-03T12:57:16.783Z,0.40
2022-10-03T12:59:53.854Z,0.57
2022-10-03T13:02:29.926Z,0.55
2022-10-03T13:05:08.216Z,0.63
2022-10-03T13:07:58.033Z,0.50
2022-10-03T13:10:42.627Z,0.52
2022-10-03T13:16:04.427Z,0.70
2022-10-03T13:18:43.372Z,0.50
2022-10-03T13:21:33.786Z,0.63
2022-10-03T13:24:07.435Z,0.63
2022-10-03T13:27:14.351Z,0.93
2022-10-03T13:29:47.029Z,0.50
2022-10-03T13:32:36.306Z,0.70
2022-10-03T13:35:42.520Z,0.50
2022-10-03T13:38:16.968Z,0.50
2022-10-03T13:43:37.956Z,0.50
2022-10-03T13:46:14.963Z,0.70
2022-10-03T13:48:48.615Z,0.52
2022-10-03T13:51:27.930Z,0.60
2022-10-03T13:54:09.895Z,0.68
2022-10-03T13:57:01.583Z,0.57
2022-10-03T14:00:08.645Z,0.52
2022-10-03T14:02:48.304Z,0.90
2022-10-03T14:05:36.782Z,0.70
2022-10-03T14:08:31.330Z,0.55
2022-10-03T14:11:24.363Z,0.60
2022-10-03T14:14:27.100Z,0.70
2022-10-03T14:17:02.463Z,0.73
2022-10-03T14:19:58.838Z,0.60
2022-10-03T14:22:53.395Z,0.95
2022-10-03T14:25:27.560Z,0.60
2022-10-03T14:28:27.031Z,0.88
2022-10-03T14:31:06.139Z,0.65
2022-10-03T14:34:13.969Z,0.93
2022-10-03T14:36:46.741Z,0.90
2022-10-03T14:39:21.550Z,0.82
2022-10-03T14:42:04.279Z,0.57
2022-10-03T14:44:43.868Z,0.60
2022-10-03T14:47:14.599Z,0.50
2022-10-03T14:49:58.754Z,0.80
2022-10-03T14:52:34.531Z,0.60
2022-10-03T14:55:15.905Z,0.75
2022-10-03T14:58:09.452Z,1.00
2022-10-03T15:01:03.477Z,1.00
2022-10-03T15:03:38.168Z,0.80
2022-10-03T15:06:12.808Z,0.80
2022-10-03T15:08:45.645Z,0.90
2022-10-03T15:11:16.366Z,1.10
2022-10-03T15:13:52.095Z,1.00
2022-10-03T15:16:23.398Z,0.68
2022-10-03T15:18:56.539Z,0.95
2022-10-03T15:21:26.337Z,1.00
2022-10-03T15:24:00.402Z,0.70
2022-10-03T15:26:31.066Z,0.80
2022-10-03T15:29:01.104Z,0.80
2022-10-03T15:31:43.975Z,0.60
2022-10-03T15:34:20.988Z,0.80
2022-10-03T15:36:54.297Z,0.52
2022-10-03T15:39:33.588Z,0.80
2022-10-03T15:42:07.849Z,0.90
2022-10-03T15:44:39.578Z,0.90
2022-10-03T15:47:13.417Z,1.02
2022-10-03T15:49:51.525Z,0.88
2022-10-03T15:52:23.990Z,0.77
2022-10-03T15:55:11.013Z,0.82
2022-10-03T15:57:46.614Z,1.10
2022-10-03T16:00:24.756Z,0.83
2022-10-03T16:03:16.418Z,1.00
2022-10-03T16:06:18.318Z,1.00
2022-10-03T16:08:59.135Z,1.40
2022-10-03T16:11:30.131Z,0.98
2022-10-03T16:14:18.109Z,1.30
2022-10-03T16:16:55.340Z,1.38
2022-10-03T16:19:31.632Z,1.50
2022-10-03T16:22:20.234Z,1.50
2022-10-03T16:25:03.510Z,3.35
2022-10-03T16:27:34.332Z,5.93
2022-10-03T16:30:19.087Z,7.50
2022-10-03T16:32:54.081Z,8.38
2022-10-03T16:35:30.997Z,7.55
2022-10-03T16:37:58.786Z,6.50
2022-10-03T16:40:27.188Z,4.82
2022-10-03T16:42:59.007Z,3.65
2022-10-03T16:45:32.892Z,3.47
2022-10-03T16:48:23.266Z,3.05
2022-10-03T16:50:53.638Z,3.47
2022-10-03T16:53:22.525Z,3.05
2022-10-03T16:55:57.888Z,2.17
2022-10-03T16:58:31.544Z,1.45
2022-10-03T17:04:03.795Z,2.10
2022-10-03T17:06:35.495Z,2.17
2022-10-03T17:09:08.369Z,1.85
2022-10-03T17:11:38.437Z,2.15
2022-10-03T17:14:08.664Z,2.47
2022-10-03T17:16:51.028Z,2.20
2022-10-03T17:19:39.928Z,2.22
2022-10-03T17:22:17.144Z,2.00
2022-10-03T17:24:59.128Z,2.20
2022-10-03T17:27:32.964Z,1.58
2022-10-03T17:30:03.632Z,1.80
2022-10-03T17:32:38.701Z,1.80
2022-10-03T17:35:45.644Z,1.58
2022-10-03T17:38:47.787Z,2.67
2022-10-03T17:41:37.804Z,3.20
2022-10-03T17:44:47.603Z,15.80
2022-10-03T17:47:23.734Z,19.10
2022-10-03T17:49:58.170Z,6.00
2022-10-03T17:52:26.266Z,5.13
2022-10-03T17:54:59.600Z,4.25
2022-10-03T17:57:37.019Z,4.05
2022-10-03T18:00:09.796Z,2.17
2022-10-03T18:03:04.275Z,1.77
2022-10-03T18:05:52.428Z,1.60
2022-10-03T18:08:30.308Z,2.38
2022-10-03T18:11:02.543Z,2.70
2022-10-03T18:13:39.333Z,2.58
2022-10-03T18:16:34.886Z,2.53
2022-10-03T18:19:13.782Z,2.58
2022-10-03T18:22:08.791Z,2.17
2022-10-03T18:24:51.586Z,2.40
2022-10-03T18:27:42.595Z,2.70
2022-10-03T18:30:21.184Z,3.47
2022-10-03T18:32:50.489Z,2.80
2022-10-03T18:35:23.638Z,3.22
2022-10-03T18:37:55.381Z,3.63
2022-10-03T18:40:30.354Z,4.35
2022-10-03T18:42:58.908Z,3.60
2022-10-03T18:45:39.024Z,4.68
2022-10-03T18:48:12.922Z,4.50
2022-10-03T18:50:50.365Z,4.80
2022-10-03T18:53:30.586Z,3.83
2022-10-03T18:56:06.047Z,4.15
2022-10-03T18:58:37.229Z,4.47
2022-10-03T19:01:13.468Z,3.20
2022-10-03T19:03:47.054Z,3.83
2022-10-03T19:06:36.150Z,4.35
2022-10-03T19:09:25.670Z,4.10
2022-10-03T19:11:57.108Z,4.35
2022-10-03T19:14:37.271Z,4.22
2022-10-03T19:17:26.451Z,3.67
2022-10-03T19:20:00.336Z,3.08
2022-10-03T19:22:40.250Z,2.05
2022-10-03T19:25:19.449Z,3.40
2022-10-03T19:27:52.852Z,3.05
2022-10-03T19:30:23.503Z,2.58
2022-10-03T19:33:06.000Z,2.70
2022-10-03T19:35:36.042Z,3.20
2022-10-03T19:38:15.525Z,3.00
2022-10-03T19:40:53.845Z,2.63
2022-10-03T19:43:23.591Z,3.20
2022-10-03T19:46:02.395Z,3.45
2022-10-03T19:48:32.334Z,3.42
2022-10-03T19:51:11.295Z,2.55
2022-10-03T19:53:43.762Z,3.40
2022-10-03T19:56:16.543Z,2.92
2022-10-03T19:58:47.769Z,2.90
2022-10-03T20:01:16.559Z,2.67
2022-10-03T20:03:52.242Z,2.35
2022-10-03T20:06:23.503Z,2.60
2022-10-03T20:08:54.314Z,2.22
2022-10-03T20:11:44.745Z,2.55
2022-10-03T20:14:17.050Z,1.95
2022-10-03T20:16:49.002Z,2.42
2022-10-03T20:19:23.690Z,2.42
2022-10-03T20:24:45.351Z,2.53
2022-10-03T20:27:23.330Z,2.30
2022-10-03T20:30:21.693Z,2.20
2022-10-03T20:32:51.301Z,2.38
2022-10-03T20:35:41.590Z,1.75
2022-10-03T20:38:35.436Z,2.28
2022-10-03T20:41:16.042Z,1.98
2022-10-03T20:43:50.378Z,2.10
2022-10-03T20:46:41.933Z,2.13
2022-10-03T20:49:12.071Z,2.15
2022-10-03T20:51:43.412Z,2.00
2022-10-03T20:54:14.621Z,1.92
2022-10-03T20:56:54.680Z,2.50
2022-10-03T20:59:29.280Z,2.67
2022-10-03T21:04:53.839Z,2.00
2022-10-03T21:07:25.429Z,2.50
2022-10-03T21:10:15.788Z,2.10
2022-10-03T21:12:49.405Z,2.40
2022-10-03T21:15:54.500Z,2.78
2022-10-03T21:18:41.033Z,2.15
2022-10-03T21:21:11.554Z,2.40
2022-10-03T21:24:02.614Z,2.63
2022-10-03T21:26:34.546Z,2.53
2022-10-03T21:29:17.802Z,2.75
2022-10-03T21:31:57.649Z,2.55
2022-10-03T21:34:29.484Z,2.60
2022-10-03T21:37:13.466Z,2.53
2022-10-03T21:39:53.759Z,2.75
2022-10-03T21:42:47.756Z,2.30
2022-10-03T21:45:25.045Z,2.50
2022-10-03T21:47:59.033Z,2.53
2022-10-03T21:50:32.012Z,1.83
2022-10-03T21:53:16.518Z,2.53
2022-10-03T21:56:23.514Z,2.67
2022-10-03T21:58:59.955Z,2.72
2022-10-03T22:01:40.809Z,2.22
2022-10-03T22:04:29.013Z,2.42
2022-10-03T22:07:18.067Z,2.58
2022-10-03T22:09:48.352Z,2.45
2022-10-03T22:12:17.261Z,2.20
2022-10-03T22:15:05.323Z,2.30
2022-10-03T22:17:38.406Z,2.90
2022-10-03T22:20:19.891Z,2.47
2022-10-03T22:22:51.835Z,2.65
2022-10-03T22:25:39.185Z,3.10
2022-10-03T22:28:26.189Z,3.00
2022-10-03T22:31:04.591Z,2.60
2022-10-03T22:33:41.115Z,3.03
2022-10-03T22:36:11.300Z,2.97
2022-10-03T22:38:40.749Z,2.92
2022-10-03T22:41:12.656Z,2.55
2022-10-03T22:43:42.320Z,2.70
2022-10-03T22:46:14.444Z,2.58
2022-10-03T22:48:50.450Z,2.38
2022-10-03T22:51:21.156Z,2.90
2022-10-03T22:53:53.404Z,2.65
2022-10-03T22:56:45.825Z,2.83
2022-10-03T22:59:34.014Z,2.40
2022-10-03T23:02:04.796Z,2.40
2022-10-03T23:04:53.138Z,3.40
2022-10-03T23:07:36.216Z,2.70
2022-10-03T23:10:23.914Z,2.55
2022-10-03T23:13:02.696Z,2.72
2022-10-03T23:15:32.666Z,2.72
2022-10-03T23:18:25.982Z,2.88
2022-10-03T23:21:07.566Z,3.30
2022-10-03T23:23:39.450Z,3.65
2022-10-03T23:26:27.482Z,3.20
2022-10-03T23:29:06.649Z,2.92
2022-10-03T23:32:09.819Z,2.70
2022-10-03T23:34:37.970Z,3.00
2022-10-03T23:37:13.371Z,2.80
2022-10-03T23:39:44.100Z,2.80
2022-10-03T23:42:40.952Z,2.65
2022-10-03T23:45:10.103Z,3.05
2022-10-03T23:47:45.216Z,3.40
2022-10-03T23:50:19.411Z,3.75
2022-10-03T23:52:51.008Z,3.20
2022-10-03T23:55:23.798Z,3.40
2022-10-03T23:57:51.268Z,3.03
